Weather observations for the past three days for
Roseau, Roseau Municipal Airport/Rudy Billberg Field
Metric (Imperial)
Date Time (cdt) Wind (kph) Vis. (km) Weather Sky Cond. Temperature (ºC) Relative Humidity Wind Chill (°C) Heat Index (°C) Pressure Precipitation (cm)
Air Dwpt 6 hour altimeter (cm) sea level (mb) 1 hr 3 hr 6 hr
Max. Min.
04 01:15 NW 24 2.82 Light Rain Fog/Mist OVC046 7.3 6.1 92% 4 74.5 0.0 0.03
04 00:55 NW 43 G 56 8.05 Light Rain and Windy FEW031 BKN050 OVC065 8.9 5.9 19.5 8.9 82% 5 74.52 0.0 0.03 0.1
04 00:35 NW 28 6.44 Light Rain SCT050 OVC065 9.7 5.9 77% 7 74.47 0.0
04 00:15 NW 39 G 48 16.09 Overcast and Breezy OVC060 11.5 6.5 72% 74.45 0.0
03 23:55 W 13 16.09 Overcast BKN060 OVC070 11.3 9.4 88% 74.4 0.0 0.03
03 23:35 W 9 11.27 Light Rain BKN049 OVC065 11.3 9.7 90% 74.42 0.0 0.03
03 23:15 W 9 12.87 Light Rain OVC050 11.6 9.6 88% 74.45 0.0
03 22:55 W 15 12.87 Light Rain OVC060 12.7 9 78% 74.47 0.0 0.05
03 22:35 W 11 11.27 Light Rain OVC060 12.8 8.8 77% 74.47 0.0 0.03
03 22:15 W 15 12.87 Light Rain FEW035 OVC060 13.8 7.9 68% 74.5 0.0
03 21:55 W 13 12.87 Light Rain BKN060 OVC075 14.5 6.7 60% 74.52 0.0
03 21:35 W 13 14.48 Light Rain FEW042 OVC070 15.6 5.8 52% 74.52 0.0
03 21:15 W 30 G 39 12.87 Light Rain BKN070 OVC080 16.2 5.5 49% 74.52 0.0
03 20:55 W 35 G 46 16.09 Light Rain and Breezy FEW065 BKN080 OVC100 17.4 3.8 41% 74.57 0.0
03 20:35 W 31 G 43 16.09 Mostly Cloudy BKN085 17.8 3.2 38% 74.57 0.0
03 20:15 SW 30 G 54 16.09 Overcast FEW060 BKN085 OVC100 17.4 2.7 38% 74.57 0.0
03 19:55 W 24 G 46 16.09 Partly Cloudy SCT095 18.9 1.1 30% 74.63 0.0
03 19:35 W 20 16.09 Mostly Cloudy BKN090 19.2 0.4 28% 74.65 0.0
03 19:15 W 28 G 44 16.09 Mostly Cloudy BKN095 19 0.5 29% 74.68 0.0
03 18:55 W 33 G 48 16.09 Mostly Cloudy and Breezy BKN100 19.6 -0.1 21.6 16.3 27% 74.68 0.0
03 18:35 W 24 G 44 16.09 Mostly Cloudy FEW080 BKN095 19.9 0.1 27% 74.73 0.0
03 18:15 W 22 16.09 Overcast OVC095 19.4 2.1 32% 74.75 0.0
03 17:55 SW 24 16.09 Mostly Cloudy BKN095 19.4 1.7 31% 74.73 0.0
03 17:35 SW 33 G 46 16.09 Partly Cloudy and Breezy FEW100 SCT120 19.8 1.3 29% 74.75 0.0
03 17:15 SW 35 G 50 16.09 Partly Cloudy and Breezy SCT130 20.1 1.1 28% 74.78 0.0
03 16:55 SW 30 G 46 16.09 A Few Clouds FEW100 21.5 1.5 27% 74.83 0.0
03 16:35 W 31 16.09 Partly Cloudy SCT095 20.7 0.9 27% 74.9 0.0
03 16:15 W 35 G 48 16.09 Mostly Cloudy and Breezy BKN090 20.2 0.9 28% 74.96 0.0
03 15:55 SW 26 G 43 16.09 A Few Clouds FEW090 20.5 1.2 28% 74.98 0.0
03 15:35 SW 31 G 41 16.09 A Few Clouds FEW110 19.8 0.9 28% 75.03 0.0
03 15:15 W 22 G 41 16.09 Partly Cloudy SCT100 19.4 -0.2 27% 75.08 0.0
03 14:55 W 24 G 31 16.09 A Few Clouds FEW100 19.3 -1.2 25% 75.16 0.0
03 14:35 SW 20 G 33 16.09 Fair CLR 18.9 0.1 28% 75.18 0.0
03 14:15 W 24 G 48 16.09 Fair CLR 18.7 -0.3 28% 75.21 0.0
03 13:55 W 22 G 44 16.09 Fair CLR 18.1 -0.6 28% 75.23 0.0
03 13:35 SW 30 G 44 16.09 Fair CLR 17.5 -1 29% 75.29 0.0
03 13:15 W 28 G 39 16.09 Fair CLR 16.7 -1.6 29% 75.34 0.0
03 12:55 SW 28 16.09 Fair CLR 16 -0.8 16 2.3 32% 75.39 0.0
03 12:35 W 28 G 41 16.09 Fair CLR 15.4 -1.7 31% 75.41 0.0
03 12:15 SW 31 G 41 16.09 Fair CLR 15.5 -1.6 31% 75.44 0.0
03 11:55 W 24 16.09 Fair CLR 14.7 -2.1 32% 75.49 0.0
03 11:35 W 24 G 35 16.09 Fair CLR 14.2 -2.4 32% 75.51 0.0
03 11:15 SW 19 16.09 Fair CLR 13.3 -2.6 33% 75.51 0.0
03 10:55 W 17 16.09 Fair CLR 13 -1.3 37% 75.54 0.0
03 10:35 W 17 16.09 Fair CLR 12.3 -1.6 38% 75.57 0.0
03 10:15 W 17 16.09 Fair CLR 11.2 -0.5 45% 75.59 0.0
03 09:55 NW 17 16.09 Fair CLR 10.1 0 50% 75.62 0.0
03 09:35 W 19 16.09 Fair CLR 9.5 0.6 54% 7 75.62 0.0
03 09:15 W 15 16.09 Fair CLR 8.6 0.8 58% 6 75.64 0.0
03 08:55 W 15 16.09 Fair CLR 7.2 0.5 63% 5 75.64 0.0
03 08:35 W 15 16.09 Fair CLR 6.2 0.4 67% 4 75.64 0.0
03 08:15 W 15 16.09 Fair CLR 5 0.2 71% 2 75.64 0.0
03 07:55 W 17 16.09 Fair CLR 3.5 -0.6 75% 0 75.64 0.0
03 07:35 W 17 16.09 Fair CLR 3 -0.9 76% -1 75.64 0.0
03 07:15 W 17 16.09 Fair CLR 2.4 -1.2 77% -1 75.64 0.0
03 06:55 W 17 16.09 Fair CLR 2.2 -1.9 6.3 1.6 75% -2 75.64 0.0
03 06:35 W 15 16.09 Fair CLR 2.3 -2.4 71% -1 75.64 0.0
03 06:15 W 13 16.09 Fair CLR 2 -2.3 73% -1 75.62 0.0
03 05:55 W 13 16.09 Fair CLR 1.9 -2.2 75% -1 75.62 0.0
03 05:35 NW 11 16.09 Fair CLR 1.9 -2.3 74% -1 75.62 0.0
03 05:15 NW 11 16.09 Fair CLR 1.8 -2.2 75% -1 75.62 0.0
03 04:55 NW 11 16.09 Fair CLR 2.5 -2.5 70% -0 75.59 0.0
03 04:35 NW 11 16.09 Fair CLR 2.2 -2.6 71% -1 75.62 0.0
03 04:15 NW 11 16.09 Fair CLR 2.5 -2.6 69% -0 75.62 0.0
03 03:55 NW 11 16.09 Fair CLR 3 -1.9 71% 0 75.59 0.0
03 03:35 N 15 16.09 Fair CLR 3.8 -1.5 69% 1 75.59 0.0
03 03:15 N 15 16.09 Fair CLR 4.2 -1.1 69% 1 75.59 0.0
03 02:55 N 17 16.09 Fair CLR 4.8 -0.8 67% 2 75.59 0.0
03 02:35 N 19 16.09 Fair CLR 5.1 -0.5 67% 2 75.59 0.0
03 02:15 N 15 16.09 Fair CLR 5.2 0.1 70% 2 75.59 0.0
03 01:55 N 15 16.09 Fair CLR 5.4 0.6 72% 3 75.59 0.0
03 01:35 NW 15 16.09 Fair CLR 5.3 0.8 73% 2 75.57 0.0
03 01:15 NW 15 16.09 Fair CLR 6 1.7 74% 3 75.57 0.0
03 00:55 NW 20 G 30 16.09 A Few Clouds FEW075 6.2 3 13.9 5.7 80% 3 75.59 0.0
03 00:35 NW 11 16.09 Mostly Cloudy BKN075 6.6 3.3 80% 5 75.54 0.0
03 00:15 NW 13 16.09 Mostly Cloudy BKN075 7 4.2 83% 5 75.57 0.0
02 23:55 NW 13 16.09 Fair CLR 7.6 5 84% 6 75.54 0.0
02 23:35 W 13 16.09 Fair CLR 7.1 5.3 88% 5 75.54 0.0
02 23:15 W 9 16.09 Fair CLR 7.1 5.4 89% 6 75.54 0.0
02 22:55 W 11 16.09 Fair CLR 5.9 5 94% 4 75.57 0.0
02 22:35 SW 9 16.09 Fair CLR 7.5 6.2 92% 6 75.54 0.0
02 22:15 SW 11 16.09 Fair CLR 6.8 5.5 92% 5 75.54 0.0
02 21:55 SW 11 16.09 Fair CLR 7.6 5.9 89% 6 75.54 0.0
02 21:35 SW 9 16.09 A Few Clouds FEW110 7.3 5.8 90% 6 75.54 0.0
02 21:15 SW 9 12.87 A Few Clouds FEW110 7.2 5.1 87% 6 75.54 0.0
02 20:55 S 7 14.48 Fair CLR 8.1 5.7 85% 7 75.54 0.0
02 20:35 S 7 12.87 Fair CLR 9.8 6 77% 9 75.54 0.0
02 20:15 S 7 12.87 Fair CLR 11.6 6.3 70% 75.54 0.0
02 19:55 Calm 14.48 Fair CLR 13.6 6.2 61% 75.54 0.0
02 19:35 Calm 14.48 Fair CLR 13.7 6.3 61% 75.54 0.0
02 19:15 Calm 14.48 Fair CLR 13.8 6.6 62% 75.54 0.0
02 18:55 S 6 12.87 Fair CLR 13.8 6.6 16.3 11.3 62% 75.54 0.0
02 18:35 SW 7 12.87 Fair CLR 13.9 6.1 60% 75.54 0.0
02 18:15 S 7 12.87 Mostly Cloudy BKN080 13.2 6.3 63% 75.54 0.0
02 17:55 S 11 12.87 Overcast OVC080 13.5 7.2 66% 75.54 0.0
02 17:15 Calm 12.87 Mostly Cloudy BKN075 BKN090 12.1 7.6 74% 75.59 0.0
02 16:55 SE 7 12.87 Overcast OVC075 11.6 7.7 77% 75.59 0.0
02 16:35 S 9 14.48 Overcast OVC070 11.4 7.6 78% 75.62 0.0
02 16:15 Calm 9.66 Light Rain FEW038 SCT060 OVC070 11.6 7.6 77% 75.64 0.0
02 15:55 NW 11 9.66 Light Rain SCT038 BKN055 11.8 6.9 72% 75.67 0.0
02 15:35 NW 17 11.27 Light Rain FEW037 SCT045 BKN055 12.2 6.6 69% 75.69 0.0
02 15:15 NW 22 11.27 Light Rain FEW036 OVC060 13.5 5 57% 75.69 0.0
02 14:55 NW 17 11.27 Light Rain FEW037 OVC060 13.9 4.6 54% 75.69 0.0
02 14:35 NW 19 12.87 Light Rain BKN065 BKN080 BKN100 14.3 3.6 49% 75.69 0.0
02 14:15 W 15 12.87 Mostly Cloudy SCT070 BKN095 15.3 2.4 42% 75.67 0.0
02 13:55 W 19 14.48 Partly Cloudy SCT095 15.5 1.7 40% 75.69 0.0
02 13:35 W 20 12.87 Mostly Cloudy BKN100 15.5 1.4 39% 75.69 0.0
02 13:15 W 20 12.87 Mostly Cloudy BKN110 15.4 0.3 36% 75.69 0.0
02 12:55 W 20 14.48 Mostly Cloudy BKN100 16.8 1 16.9 2.7 35% 75.67 0.0
02 12:35 SW 17 16.09 Overcast OVC100 16.7 1.6 36% 75.67 0.0
02 12:15 SW 13 16.09 Mostly Cloudy BKN100 15.3 1 38% 75.69 0.0
02 11:55 S 20 14.48 Mostly Cloudy BKN110 13.9 0.6 41% 75.72 0.0
02 11:35 S 20 16.09 Overcast OVC100 13.4 0.7 42% 75.72 0.0
02 11:15 S 20 14.48 Mostly Cloudy BKN100 12.8 0.3 43% 75.74 0.0
02 10:55 S 20 16.09 A Few Clouds FEW100 12 0 44% 75.77 0.0
02 10:35 S 20 16.09 Fair CLR 12.1 -0.3 43% 75.77 0.0
02 10:15 S 20 16.09 Fair CLR 11.2 -0.4 45% 75.79 0.0
02 09:55 S 22 16.09 Fair CLR 10.8 -0.9 45% 75.82 0.0
02 09:35 S 26 16.09 Fair CLR 10.6 -1.4 44% 75.82 0.0
02 09:15 S 20 16.09 Fair CLR 10 -1.4 45% 8 75.82 0.0
02 08:55 S 20 16.09 Fair CLR 8.9 -1.9 47% 6 75.84 0.0
02 08:35 S 22 16.09 Fair CLR 8.2 -1.8 50% 5 75.87 0.0
02 08:15 S 22 14.48 Fair CLR 6.9 -2.3 52% 4 75.9 0.0
02 07:55 S 20 14.48 Fair CLR 5.5 -2.8 55% 2 75.92 0.0
02 07:35 S 17 14.48 Fair CLR 4.2 -2.8 61% 1 75.95 0.0
02 07:15 S 13 12.87 Fair CLR 3.5 -2.7 64% 1 75.97 0.0
02 06:55 S 13 16.09 A Few Clouds FEW130 2.2 -3.2 2.2 -0.8 68% -1 76 0.0
02 06:35 S 19 16.09 Partly Cloudy SCT120 2 -3.5 67% -2 76 0.0
02 06:15 S 19 16.09 Mostly Cloudy BKN120 BKN140 1.5 -3.4 70% -3 76.02 0.0
02 05:55 S 19 16.09 Mostly Cloudy BKN140 0.9 -3.5 73% -3 76.05 0.0
02 05:35 S 17 16.09 Partly Cloudy SCT140 0 -3.8 76% -4 76.05 0.0
02 05:15 S 15 16.09 Fair CLR -0.6 -4.1 77% -5 76.1 0.0
02 04:55 S 11 16.09 Fair CLR -0.4 -4.2 76% -4 76.12 0.0
02 04:35 S 9 16.09 Fair CLR -0.2 -4.1 75% -3 76.12 0.0
02 04:15 S 13 16.09 Fair CLR -0.4 -4 77% -4 76.15 0.0
02 03:55 S 13 16.09 Fair CLR -0.4 -4 77% -4 76.15 0.0
02 03:35 S 11 16.09 A Few Clouds FEW140 0.5 -3.4 75% -3 76.15 0.0
02 03:15 S 11 16.09 Mostly Cloudy BKN140 -0.4 -3.6 79% -4 76.17 0.0
02 02:55 S 11 16.09 Overcast OVC150 0.6 -3.9 72% -2 76.2 0.0
02 02:35 S 11 16.09 Mostly Cloudy BKN150 0.2 -3.8 75% -3 76.23 0.0
02 02:15 S 9 16.09 A Few Clouds FEW150 0.9 -3.6 72% -2 76.23 0.0
02 01:55 S 13 16.09 Fair CLR 1.5 -3.9 68% -2 76.25 0.0
02 01:35 S 11 16.09 Fair CLR 0.6 -3.9 72% -2 76.25 0.0
02 01:15 S 11 16.09 Fair CLR 1 -3.5 72% -2 76.28 0.0
02 00:55 S 9 16.09 Fair CLR 0.9 -3.4 11.8 0.1 73% -2 76.28 0.0
02 00:35 S 9 16.09 Fair CLR 0.8 -3.5 73% -2 76.28 0.0
02 00:15 S 9 16.09 Fair CLR 1.8 -3.7 67% -1 76.28 0.0
01 23:55 S 11 16.09 Fair CLR 0.7 -3.1 76% -2 76.28 0.0
01 23:35 SE 11 16.09 Fair CLR 1.8 -3.1 70% -1 76.28 0.0
01 23:15 Calm 16.09 Fair CLR 2.5 -3.3 66% 76.28 0.0
01 22:55 S 6 14.48 Fair CLR 3.5 -2.9 63% 76.3 0.0
01 22:35 S 7 12.87 Fair CLR 3.3 -3.4 62% 2 76.3 0.0
01 22:15 W 6 12.87 Fair CLR 3.8 -3 62% 76.3 0.0
01 21:55 W 7 14.48 Fair CLR 6.5 -4.7 45% 5 76.3 0.0
01 21:35 W 7 14.48 Fair CLR 7.5 -5 41% 6 76.3 0.0
01 21:15 W 9 14.48 Fair CLR 8.2 -4.4 41% 7 76.33 0.0
01 20:55 W 9 12.87 Fair CLR 8.6 -4.5 40% 7 76.3 0.0
01 20:35 W 9 14.48 Fair CLR 9.1 -4.4 39% 8 76.33 0.0
01 20:15 W 11 12.87 Fair CLR 10 -4 37% 9 76.3 0.0
01 19:55 W 11 14.48 Fair CLR 11 -4.3 34% 76.33 0.0
01 19:35 W 15 12.87 Fair CLR 11.3 -4.1 34% 76.33 0.0
01 19:15 W 15 14.48 Fair CLR 11.7 -5.1 31% 76.33 0.0
01 18:55 W 19 12.87 Fair CLR 11.9 -5.6 12.7 8.6 29% 76.33 0.0
01 18:35 W 19 12.87 A Few Clouds FEW075 12.1 -5 30% 76.33 0.0
01 18:15 W 17 14.48 A Few Clouds FEW075 12.2 -4.5 31% 76.35 0.0
01 17:55 W 19 12.87 Fair CLR 12.1 -4 33% 76.35 0.0
01 17:35 W 11 12.87 Fair CLR 11.9 -4.6 32% 76.35 0.0
01 17:15 W 19 12.87 Fair CLR 12.1 -4 33% 76.35 0.0
01 16:55 W 9 12.87 Fair CLR 12.1 -4.2 32% 76.35 0.0
01 16:35 Vrbl 6 12.87 Fair CLR 11.7 -4.6 32% 76.38 0.0
01 16:15 N 7 12.87 A Few Clouds FEW070 10.8 -4.1 35% 76.38 0.0
01 15:55 W 15 12.87 Partly Cloudy SCT065 11 -3.8 36% 76.4 0.0
01 15:35 Vrbl 7 14.48 Partly Cloudy SCT065 10.7 -3.2 38% 76.43 0.0
01 15:15 W 15 14.48 Mostly Cloudy BKN060 11.5 -3 36% 76.43 0.0
01 14:55 NW 15 12.87 Mostly Cloudy BKN060 9.9 -2.8 41% 8 76.43 0.0
01 14:35 W 13 12.87 Overcast OVC060 11 -2.8 38% 76.45 0.0
01 14:15 W 7 14.48 Mostly Cloudy BKN065 9.9 -4.1 37% 9 76.45 0.0
01 13:55 Vrbl 7 14.48 Partly Cloudy SCT060 9.5 -4.4 38% 9 76.45 0.0
01 13:35 Vrbl 6 14.48 Fair CLR 9.5 -4 39% 76.48 0.0
01 13:15 Calm 14.48 Fair CLR 8.8 -4.2 40% 76.48 0.0
01 12:55 Vrbl 7 14.48 A Few Clouds FEW055 9.3 -3.8 9.4 -1.9 40% 9 76.5 0.0
01 12:35 Vrbl 9 14.48 Fair CLR 9.2 -4.2 39% 8 76.5 0.0
01 12:15 NW 9 14.48 Fair CLR 8.3 -3.6 43% 7 76.53 0.0
01 11:55 Vrbl 9 14.48 Fair CLR 7.9 -4.1 43% 7 76.53 0.0
01 11:35 SW 6 14.48 Fair CLR 8.1 -5 39% 76.53 0.0
01 11:15 W 7 16.09 Fair CLR 7.8 -4.8 41% 7 76.53 0.0
01 10:55 Vrbl 9 16.09 Fair CLR 6.6 -3.8 48% 5 76.56 0.0
01 10:35 Vrbl 9 14.48 Fair CLR 6.6 -3.5 49% 5 76.56 0.0
01 10:15 W 7 14.48 Fair CLR 5.3 -4.1 51% 4 76.56 0.0
01 09:55 NW 9 14.48 Fair CLR 4.4 -3.5 57% 2 76.56 0.0
01 09:35 W 9 14.48 Fair CLR 3.8 -3.1 61% 2 76.56 0.0
01 09:15 W 9 14.48 Fair CLR 2.9 -2.8 66% 1 76.56 0.0
01 08:55 W 7 14.48 Fair CLR 1.9 -3.4 68% 0 76.56 0.0
01 08:35 NW 7 14.48 Fair CLR 1.5 -3.4 70% -0 76.56 0.0
01 08:15 W 9 12.87 Fair CLR 0.9 -2.8 77% -2 76.56 0.0
01 07:55 W 7 14.48 Fair CLR -0.1 -3.4 79% -2 76.53 0.0
01 07:35 Calm 12.87 Fair CLR -0.7 -3.5 82% 76.53 0.0
01 07:15 W 7 14.48 Fair CLR -1.3 -4.2 81% -4 76.53 0.0
01 06:55 W 6 12.87 Fair CLR -2.5 -5.1 -0.2 -5 83% 76.5 0.0
01 06:35 Calm 14.48 Fair CLR -3.2 -4.8 89% 76.5 0.0
01 06:15 Calm 14.48 Fair CLR -3.9 -5.5 89% 76.48 0.0
01 05:55 Calm 16.09 Fair CLR -4.2 -5.6 90% 76.48 0.0
01 05:35 Calm 16.09 Fair CLR -4.3 -5.7 90% 76.48 0.0
01 05:15 Calm 16.09 Fair CLR -4.4 -6.1 88% 76.45 0.0
01 04:55 Calm 16.09 Fair CLR -4.7 -6.4 88% 76.45 0.0
01 04:35 Calm 16.09 Fair CLR -4.5 -6.4 87% 76.45 0.0
01 04:15 Calm 16.09 Fair CLR -4 -5.9 87% 76.45 0.0
01 03:55 Calm 16.09 Fair CLR -3.3 -6.5 79% 76.45 0.0
01 03:35 Calm 16.09 Fair CLR -2.3 -5.3 80% 76.43 0.0
01 03:15 Calm 16.09 Fair CLR -2.8 -6.3 77% 76.43 0.0
01 02:55 Calm 14.48 Fair CLR -1.3 -5.7 72% 76.43 0.0
01 02:35 N 6 16.09 Fair CLR -0.6 -5 72% 76.43 0.0
01 02:15 N 6 16.09 Fair CLR -0.4 -5.5 69% 76.43 0.0
01 01:55 Calm 16.09 Fair CLR -1.3 -5.7 72% 76.43 0.0
01 01:35 NW 6 16.09 Fair CLR -1.2 -5.4 73% 76.43 0.0
Date Time (cdt) Wind (kph) Vis. (km) Weather Sky Cond. Air Dwpt Max. Min. Relative Humidity Wind Chill (°C) Heat Index (°C) altimeter (cm) sea level (mb) 1 hr 3 hr 6 hr
6 hour
Temperature (ºC) Pressure Precipitation (cm)